createdAt,value
2018-11-10T00:01:36.474Z,23.07
2018-11-10T00:04:04.847Z,24.17
2018-11-10T00:06:33.447Z,23.17
2018-11-10T00:09:02.243Z,21.00
2018-11-10T00:11:30.936Z,33.97
2018-11-10T00:13:59.329Z,23.93
2018-11-10T00:16:27.748Z,24.20
2018-11-10T00:18:56.033Z,21.50
2018-11-10T00:21:24.459Z,20.73
2018-11-10T00:23:53.043Z,21.20
2018-11-10T00:26:21.385Z,21.43
2018-11-10T00:28:49.640Z,21.40
2018-11-10T00:31:17.969Z,21.30
2018-11-10T00:33:46.233Z,21.50
2018-11-10T00:36:14.500Z,20.63
2018-11-10T00:38:42.817Z,21.90
2018-11-10T00:41:11.181Z,20.53
2018-11-10T00:43:39.501Z,21.10
2018-11-10T00:46:07.859Z,21.97
2018-11-10T00:48:36.208Z,20.73
2018-11-10T00:51:04.543Z,19.10
2018-11-10T00:53:33.028Z,19.93
2018-11-10T00:56:01.294Z,19.80
2018-11-10T00:58:29.820Z,21.57
2018-11-10T01:00:58.210Z,22.03
2018-11-10T01:03:26.621Z,22.33
2018-11-10T01:05:54.957Z,21.30
2018-11-10T01:08:23.299Z,21.27
2018-11-10T01:10:51.630Z,21.47
2018-11-10T01:13:20.053Z,20.90
2018-11-10T01:15:48.560Z,20.73
2018-11-10T01:18:16.820Z,19.80
2018-11-10T01:20:45.149Z,20.57
2018-11-10T01:23:13.440Z,26.00
2018-11-10T01:25:41.740Z,25.03
2018-11-10T01:28:10.016Z,17.77
2018-11-10T01:30:38.691Z,20.00
2018-11-10T01:33:07.008Z,18.73
2018-11-10T01:35:35.429Z,18.63
2018-11-10T01:38:03.753Z,19.63
2018-11-10T01:40:32.119Z,19.23
2018-11-10T01:43:00.470Z,19.73
2018-11-10T01:45:28.899Z,18.30
2018-11-10T01:47:57.201Z,18.60
2018-11-10T01:50:25.456Z,18.73
2018-11-10T01:52:53.802Z,19.03
2018-11-10T01:55:22.106Z,17.50
2018-11-10T01:57:50.446Z,19.37
2018-11-10T02:00:19.452Z,19.83
2018-11-10T02:02:48.384Z,20.73
2018-11-10T02:05:17.370Z,20.93
2018-11-10T02:07:45.649Z,21.47
2018-11-10T02:10:14.141Z,20.33
2018-11-10T02:12:42.728Z,21.43
2018-11-10T02:15:13.381Z,21.80
2018-11-10T02:17:42.286Z,21.30
2018-11-10T02:20:12.102Z,22.87
2018-11-10T02:22:40.753Z,21.53
2018-11-10T02:25:10.225Z,23.33
2018-11-10T02:27:39.209Z,22.90
2018-11-10T02:30:08.938Z,24.13
2018-11-10T02:32:37.298Z,24.37
2018-11-10T02:35:06.751Z,24.37
2018-11-10T02:37:35.285Z,24.83
2018-11-10T02:40:03.640Z,24.33
2018-11-10T02:42:32.060Z,24.93
2018-11-10T02:45:00.402Z,25.73
2018-11-10T02:47:28.700Z,25.50
2018-11-10T02:49:56.977Z,23.63
2018-11-10T02:52:25.336Z,26.17
2018-11-10T02:54:53.728Z,26.30
2018-11-10T02:57:21.996Z,24.97
2018-11-10T02:59:50.351Z,24.43
2018-11-10T03:02:18.652Z,24.00
2018-11-10T03:04:47.111Z,25.83
2018-11-10T03:07:15.389Z,25.43
2018-11-10T03:09:43.852Z,23.80
2018-11-10T03:12:12.153Z,24.40
2018-11-10T03:14:40.592Z,24.57
2018-11-10T03:17:08.899Z,23.70
2018-11-10T03:19:37.284Z,24.37
2018-11-10T03:22:05.580Z,25.03
2018-11-10T03:24:34.234Z,26.13
2018-11-10T03:27:02.505Z,25.67
2018-11-10T03:29:31.087Z,26.30
2018-11-10T03:31:59.376Z,25.97
2018-11-10T03:34:27.686Z,25.60
2018-11-10T03:36:55.984Z,32.33
2018-11-10T03:39:24.278Z,27.13
2018-11-10T03:41:52.587Z,24.60
2018-11-10T03:44:21.007Z,24.70
2018-11-10T03:46:49.271Z,22.97
2018-11-10T03:49:17.548Z,25.13
2018-11-10T03:51:45.898Z,25.57
2018-11-10T03:54:14.182Z,24.17
2018-11-10T03:56:42.753Z,21.57
2018-11-10T03:59:11.306Z,23.70
2018-11-10T04:01:39.734Z,21.60
2018-11-10T04:04:07.996Z,23.67
2018-11-10T04:06:36.757Z,21.00
2018-11-10T04:09:06.384Z,21.37
2018-11-10T04:11:34.992Z,22.63
2018-11-10T04:14:03.376Z,20.07
2018-11-10T04:16:31.897Z,18.80
2018-11-10T04:19:00.160Z,20.07
2018-11-10T04:21:28.568Z,20.20
2018-11-10T04:23:56.808Z,20.27
2018-11-10T04:26:25.116Z,19.10
2018-11-10T04:28:53.460Z,20.77
2018-11-10T04:31:21.794Z,20.30
2018-11-10T04:33:50.038Z,19.83
2018-11-10T04:36:18.831Z,20.77
2018-11-10T04:38:47.073Z,20.63
2018-11-10T04:41:15.372Z,21.03
2018-11-10T04:43:43.913Z,19.67
2018-11-10T04:46:12.266Z,19.53
2018-11-10T04:48:40.777Z,18.20
2018-11-10T04:51:09.096Z,19.37
2018-11-10T04:53:37.472Z,19.77
2018-11-10T04:56:05.786Z,20.83
2018-11-10T04:58:34.378Z,20.13
2018-11-10T05:01:02.743Z,21.00
2018-11-10T05:03:30.993Z,19.87
2018-11-10T05:05:59.344Z,22.70
2018-11-10T05:08:27.598Z,21.93
2018-11-10T05:10:55.866Z,21.00
2018-11-10T05:13:24.165Z,20.23
2018-11-10T05:15:52.508Z,22.10
2018-11-10T05:18:20.812Z,21.37
2018-11-10T05:20:49.136Z,19.97
2018-11-10T05:23:17.462Z,19.43
2018-11-10T05:25:46.236Z,21.30
2018-11-10T05:28:14.617Z,21.17
2018-11-10T05:30:42.986Z,21.17
2018-11-10T05:33:11.268Z,20.67
2018-11-10T05:35:40.308Z,20.50
2018-11-10T05:38:08.838Z,20.10
2018-11-10T05:40:37.430Z,20.60
2018-11-10T05:43:06.099Z,18.07
2018-11-10T05:45:34.818Z,20.53
2018-11-10T05:48:03.215Z,19.93
2018-11-10T05:50:31.496Z,19.03
2018-11-10T05:52:59.819Z,18.07
2018-11-10T05:55:28.206Z,17.90
2018-11-10T05:57:56.481Z,18.60
2018-11-10T06:00:24.982Z,17.87
2018-11-10T06:02:53.253Z,17.53
2018-11-10T06:05:21.675Z,18.23
2018-11-10T06:07:49.937Z,17.47
2018-11-10T06:10:18.322Z,17.93
2018-11-10T06:12:46.712Z,17.80
2018-11-10T06:15:15.038Z,17.53
2018-11-10T06:17:43.635Z,17.40
2018-11-10T06:20:12.867Z,17.07
2018-11-10T06:22:41.980Z,16.57
2018-11-10T06:25:11.010Z,18.23
2018-11-10T06:27:39.917Z,17.27
2018-11-10T06:30:10.554Z,18.23
2018-11-10T06:32:39.722Z,17.73
2018-11-10T06:35:08.629Z,17.47
2018-11-10T06:37:37.271Z,16.83
2018-11-10T06:40:07.545Z,16.10
2018-11-10T06:42:35.902Z,16.00
2018-11-10T06:45:04.832Z,16.43
2018-11-10T06:47:33.446Z,16.47
2018-11-10T06:50:01.753Z,16.60
2018-11-10T06:52:30.021Z,16.53
2018-11-10T06:54:58.334Z,15.83
2018-11-10T06:57:26.678Z,14.23
2018-11-10T06:59:54.945Z,15.20
2018-11-10T07:02:23.264Z,17.43
2018-11-10T07:04:51.564Z,16.60
2018-11-10T07:07:19.921Z,15.80
2018-11-10T07:09:48.611Z,16.30
2018-11-10T07:12:16.936Z,14.30
2018-11-10T07:14:45.720Z,15.83
2018-11-10T07:17:14.116Z,15.93
2018-11-10T07:19:42.797Z,15.63
2018-11-10T07:22:11.204Z,16.33
2018-11-10T07:24:40.259Z,15.60
2018-11-10T07:27:08.693Z,15.90
2018-11-10T07:29:37.429Z,14.50
2018-11-10T07:32:06.070Z,15.10
2018-11-10T07:34:34.434Z,14.23
2018-11-10T07:37:02.888Z,15.23
2018-11-10T07:39:31.254Z,13.97
2018-11-10T07:41:59.685Z,14.90
2018-11-10T07:44:28.212Z,14.37
2018-11-10T07:46:56.641Z,15.13
2018-11-10T07:49:25.205Z,15.83
2018-11-10T07:51:53.592Z,15.50
2018-11-10T07:54:22.485Z,15.23
2018-11-10T07:56:50.972Z,15.27
2018-11-10T07:59:19.403Z,16.10
2018-11-10T08:01:48.733Z,14.67
2018-11-10T08:04:17.063Z,15.93
2018-11-10T08:06:45.917Z,15.63
2018-11-10T08:09:14.337Z,15.03
2018-11-10T08:11:43.237Z,15.93
2018-11-10T08:14:11.623Z,13.67
2018-11-10T08:16:40.578Z,16.13
2018-11-10T08:19:09.369Z,16.67
2018-11-10T08:21:37.687Z,14.80
2018-11-10T08:24:06.418Z,16.17
2018-11-10T08:26:35.360Z,16.17
2018-11-10T08:29:03.684Z,16.43
2018-11-10T08:31:32.085Z,16.60
2018-11-10T08:34:00.423Z,16.73
2018-11-10T08:36:28.814Z,17.73
2018-11-10T08:38:57.158Z,16.37
2018-11-10T08:41:25.534Z,17.30
2018-11-10T08:43:53.921Z,17.67
2018-11-10T08:46:22.664Z,17.77
2018-11-10T08:48:51.046Z,17.60
2018-11-10T08:51:19.325Z,17.87
2018-11-10T08:53:47.800Z,17.53
2018-11-10T08:56:16.102Z,18.37
2018-11-10T08:58:44.585Z,18.17
2018-11-10T09:01:13.018Z,16.67
2018-11-10T09:03:41.616Z,17.53
2018-11-10T09:06:09.966Z,18.57
2018-11-10T09:08:38.342Z,16.57
2018-11-10T09:11:06.624Z,16.10
2018-11-10T09:13:35.245Z,17.17
2018-11-10T09:16:03.564Z,16.23
2018-11-10T09:18:31.848Z,17.60
2018-11-10T09:21:00.122Z,18.20
2018-11-10T09:23:28.445Z,17.27
2018-11-10T09:25:56.731Z,17.40
2018-11-10T09:28:25.110Z,17.70
2018-11-10T09:30:53.490Z,16.50
2018-11-10T09:33:21.741Z,16.30
2018-11-10T09:35:50.099Z,15.47
2018-11-10T09:38:18.447Z,14.97
2018-11-10T09:40:47.750Z,14.07
2018-11-10T09:43:16.021Z,14.20
2018-11-10T09:45:44.373Z,12.60
2018-11-10T09:48:12.718Z,14.90
2018-11-10T09:50:41.055Z,14.53
2018-11-10T09:53:09.340Z,14.13
2018-11-10T09:55:37.608Z,13.50
2018-11-10T09:58:06.050Z,14.53
2018-11-10T10:00:34.786Z,13.83
2018-11-10T10:03:03.100Z,12.13
2018-11-10T10:05:31.422Z,13.20
2018-11-10T10:07:59.774Z,14.13
2018-11-10T10:10:28.037Z,16.87
2018-11-10T10:12:56.312Z,18.00
2018-11-10T10:15:24.677Z,18.33
2018-11-10T10:17:52.981Z,17.20
2018-11-10T10:20:21.309Z,18.80
2018-11-10T10:22:50.058Z,16.83
2018-11-10T10:25:18.940Z,16.73
2018-11-10T10:27:47.965Z,18.17
2018-11-10T10:30:18.893Z,18.17
2018-11-10T10:32:47.992Z,18.57
2018-11-10T10:35:16.612Z,18.97
2018-11-10T10:37:45.962Z,18.60
2018-11-10T10:40:14.880Z,18.17
2018-11-10T10:42:43.581Z,19.43
2018-11-10T10:45:13.513Z,19.27
2018-11-10T10:47:42.120Z,18.20
2018-11-10T10:50:12.142Z,18.90
2018-11-10T10:52:40.494Z,18.47
2018-11-10T10:55:09.446Z,18.33
2018-11-10T10:57:37.756Z,17.20
2018-11-10T11:00:10.409Z,18.93
2018-11-10T11:02:44.237Z,18.17
2018-11-10T11:05:17.043Z,18.10
2018-11-10T11:07:45.340Z,17.30
2018-11-10T11:10:13.636Z,19.80
2018-11-10T11:12:41.948Z,18.67
2018-11-10T11:15:10.307Z,18.67
2018-11-10T11:17:38.513Z,18.47
2018-11-10T11:20:06.865Z,19.00
2018-11-10T11:22:35.384Z,18.83
2018-11-10T11:25:03.717Z,18.33
2018-11-10T11:27:32.052Z,19.70
2018-11-10T11:30:00.665Z,19.23
2018-11-10T11:32:28.959Z,18.60
2018-11-10T11:34:57.244Z,18.23
2018-11-10T11:37:25.545Z,18.53
2018-11-10T11:39:53.828Z,16.70
2018-11-10T11:42:22.184Z,18.53
2018-11-10T11:44:50.477Z,18.20
2018-11-10T11:47:18.773Z,18.50
2018-11-10T11:49:47.162Z,18.57
2018-11-10T11:52:15.504Z,19.27
2018-11-10T11:54:43.804Z,17.37
2018-11-10T11:57:12.142Z,17.60
2018-11-10T11:59:40.716Z,17.60
2018-11-10T12:02:08.978Z,18.10
2018-11-10T12:04:37.394Z,18.53
2018-11-10T12:07:06.023Z,18.63
2018-11-10T12:09:34.696Z,18.00
2018-11-10T12:12:03.007Z,18.43
2018-11-10T12:14:31.444Z,19.77
2018-11-10T12:16:59.803Z,17.43
2018-11-10T12:19:28.160Z,17.33
2018-11-10T12:21:56.494Z,18.73
2018-11-10T12:24:24.888Z,16.27
2018-11-10T12:26:53.260Z,16.93
2018-11-10T12:29:21.545Z,18.67
2018-11-10T12:31:49.928Z,17.80
2018-11-10T12:34:18.492Z,17.77
2018-11-10T12:36:46.912Z,17.90
2018-11-10T12:39:15.357Z,18.33
2018-11-10T12:41:43.983Z,19.40
2018-11-10T12:44:12.283Z,18.87
2018-11-10T12:46:40.651Z,17.77
2018-11-10T12:49:09.892Z,20.07
2018-11-10T12:51:38.123Z,18.20
2018-11-10T12:54:06.913Z,17.40
2018-11-10T12:56:35.594Z,19.20
2018-11-10T12:59:03.989Z,18.80
2018-11-10T13:01:32.313Z,17.97
2018-11-10T13:04:00.659Z,19.07
2018-11-10T13:06:28.932Z,19.13
2018-11-10T13:08:57.435Z,17.60
2018-11-10T13:11:25.742Z,20.60
2018-11-10T13:13:57.998Z,18.40
2018-11-10T13:16:26.345Z,18.80
2018-11-10T13:18:54.849Z,19.00
2018-11-10T13:21:23.237Z,18.23
2018-11-10T13:23:51.817Z,19.13
2018-11-10T13:26:20.203Z,17.70
2018-11-10T13:28:49.760Z,19.43
2018-11-10T13:31:18.419Z,19.23
2018-11-10T13:33:46.813Z,19.77
2018-11-10T13:36:15.225Z,19.30
2018-11-10T13:38:43.584Z,24.27
2018-11-10T13:41:11.887Z,21.00
2018-11-10T13:43:40.229Z,20.03
2018-11-10T13:46:08.580Z,19.27
2018-11-10T13:48:36.965Z,32.47
2018-11-10T13:51:05.626Z,18.90
2018-11-10T13:53:36.329Z,19.17
2018-11-10T13:56:06.294Z,18.57
2018-11-10T13:58:38.443Z,18.80
2018-11-10T14:01:06.909Z,19.83
2018-11-10T14:03:35.262Z,19.40
2018-11-10T14:06:03.573Z,18.97
2018-11-10T14:08:31.886Z,18.97
2018-11-10T14:11:00.194Z,17.80
2018-11-10T14:13:28.488Z,18.27
2018-11-10T14:15:56.842Z,19.33
2018-11-10T14:18:25.129Z,19.07
2018-11-10T14:20:53.461Z,18.97
2018-11-10T14:23:21.808Z,19.03
2018-11-10T14:25:50.102Z,17.30
2018-11-10T14:28:18.410Z,18.33
2018-11-10T14:30:46.730Z,19.70
2018-11-10T14:33:15.023Z,18.87
2018-11-10T14:35:43.369Z,18.67
2018-11-10T14:38:11.696Z,19.37
2018-11-10T14:40:39.969Z,19.60
2018-11-10T14:43:08.277Z,21.50
2018-11-10T14:45:36.559Z,17.87
2018-11-10T14:48:04.869Z,17.40
2018-11-10T14:50:33.217Z,17.67
2018-11-10T14:53:01.756Z,18.57
2018-11-10T14:55:29.911Z,16.83
2018-11-10T14:57:58.218Z,19.63
2018-11-10T15:01:03.941Z,20.37
2018-11-10T15:03:32.257Z,19.57
2018-11-10T15:06:00.614Z,18.93
2018-11-10T15:08:28.869Z,20.33
2018-11-10T15:10:57.173Z,20.00
2018-11-10T15:13:25.530Z,20.67
2018-11-10T15:15:53.891Z,20.23
2018-11-10T15:18:22.289Z,19.37
2018-11-10T15:20:50.466Z,21.30
2018-11-10T15:23:18.763Z,19.27
2018-11-10T15:25:47.159Z,19.00
2018-11-10T15:28:15.443Z,19.00
2018-11-10T15:30:43.705Z,19.40
2018-11-10T15:33:12.034Z,19.43
2018-11-10T15:35:40.778Z,19.07
2018-11-10T15:38:09.027Z,20.00
2018-11-10T15:40:37.334Z,21.00
2018-11-10T15:43:05.868Z,20.53
2018-11-10T15:45:34.165Z,20.27
2018-11-10T15:48:02.543Z,20.73
2018-11-10T15:50:30.895Z,21.50
2018-11-10T15:52:59.088Z,22.33
2018-11-10T15:55:27.400Z,20.17
2018-11-10T15:57:55.665Z,22.13
2018-11-10T16:00:23.952Z,24.47
2018-11-10T16:02:52.261Z,22.17
2018-11-10T16:05:21.558Z,24.87
2018-11-10T16:07:49.857Z,22.60
2018-11-10T16:10:18.181Z,31.13
2018-11-10T16:12:46.437Z,20.90
2018-11-10T16:15:16.036Z,22.20
2018-11-10T16:17:44.476Z,23.23
2018-11-10T16:20:14.764Z,23.63
2018-11-10T16:22:44.545Z,23.07
2018-11-10T16:25:12.924Z,25.67
2018-11-10T16:27:41.241Z,25.97
2018-11-10T16:30:11.246Z,24.27
2018-11-10T16:32:39.589Z,27.23
2018-11-10T16:35:07.953Z,26.43
2018-11-10T16:37:36.491Z,25.83
2018-11-10T16:40:06.990Z,26.30
2018-11-10T16:42:35.563Z,26.57
2018-11-10T16:45:04.728Z,26.00
2018-11-10T16:47:33.206Z,26.47
2018-11-10T16:50:01.507Z,25.13
2018-11-10T16:52:29.872Z,27.47
2018-11-10T16:54:58.999Z,26.63
2018-11-10T16:57:27.829Z,27.50
2018-11-10T16:59:56.482Z,27.03
2018-11-10T17:02:25.322Z,26.37
2018-11-10T17:04:54.491Z,31.57
2018-11-10T17:07:23.469Z,34.13
2018-11-10T17:09:51.804Z,28.80
2018-11-10T17:12:20.197Z,27.47
2018-11-10T17:14:48.624Z,28.43
2018-11-10T17:17:17.100Z,28.23
2018-11-10T17:19:45.760Z,27.37
2018-11-10T17:22:14.422Z,25.23
2018-11-10T17:24:42.900Z,25.87
2018-11-10T17:27:11.494Z,27.10
2018-11-10T17:29:39.843Z,24.57
2018-11-10T17:32:08.517Z,29.07
2018-11-10T17:34:36.868Z,27.83
2018-11-10T17:37:05.527Z,28.07
2018-11-10T17:39:34.253Z,27.53
2018-11-10T17:42:02.892Z,26.40
2018-11-10T17:44:31.246Z,28.77
2018-11-10T17:47:00.066Z,27.90
2018-11-10T17:49:28.468Z,27.70
2018-11-10T17:51:57.088Z,29.97
2018-11-10T17:54:25.666Z,27.70
2018-11-10T17:56:54.019Z,30.30
2018-11-10T17:59:22.342Z,29.23
2018-11-10T18:01:50.778Z,28.73
2018-11-10T18:04:19.003Z,28.20
2018-11-10T18:06:47.764Z,30.40
2018-11-10T18:09:16.280Z,27.70
2018-11-10T18:11:44.524Z,29.57
2018-11-10T18:14:12.823Z,28.50
2018-11-10T18:16:41.124Z,29.83
2018-11-10T18:19:09.495Z,29.63
2018-11-10T18:21:37.664Z,28.57
2018-11-10T18:24:06.156Z,29.77
2018-11-10T18:26:34.408Z,29.70
2018-11-10T18:29:02.730Z,29.23
2018-11-10T18:31:31.009Z,29.13
2018-11-10T18:33:59.330Z,29.03
2018-11-10T18:36:27.572Z,52.97
2018-11-10T18:38:56.072Z,29.90
2018-11-10T18:41:24.328Z,29.23
2018-11-10T18:43:52.578Z,26.93
2018-11-10T18:46:20.860Z,29.27
2018-11-10T18:48:49.158Z,27.27
2018-11-10T18:51:17.442Z,28.27
2018-11-10T18:53:45.914Z,28.93
2018-11-10T18:56:14.188Z,27.07
2018-11-10T18:58:42.482Z,28.13
2018-11-10T19:01:10.758Z,27.00
2018-11-10T19:03:39.022Z,25.90
2018-11-10T19:06:07.445Z,27.13
2018-11-10T19:08:35.995Z,25.50
2018-11-10T19:11:04.329Z,26.97
2018-11-10T19:13:32.622Z,26.73
2018-11-10T19:16:00.978Z,25.63
2018-11-10T19:18:29.261Z,26.00
2018-11-10T19:20:57.602Z,25.97
2018-11-10T19:23:25.823Z,25.20
2018-11-10T19:25:54.139Z,25.87
2018-11-10T19:28:22.384Z,26.77
2018-11-10T19:30:50.690Z,26.37
2018-11-10T19:33:19.043Z,25.33
2018-11-10T19:35:47.298Z,25.23
2018-11-10T19:38:15.831Z,26.40
2018-11-10T19:40:44.856Z,24.57
2018-11-10T19:43:13.118Z,24.47
2018-11-10T19:45:41.433Z,24.87
2018-11-10T19:48:09.744Z,25.33
2018-11-10T19:50:38.140Z,27.23
2018-11-10T19:53:06.316Z,25.47
2018-11-10T19:55:34.600Z,25.37
2018-11-10T19:58:02.901Z,24.27
2018-11-10T20:00:31.242Z,26.00
2018-11-10T20:02:59.498Z,24.93
2018-11-10T20:05:27.779Z,24.50
2018-11-10T20:07:56.095Z,23.67
2018-11-10T20:10:24.390Z,23.77
2018-11-10T20:12:52.691Z,22.63
2018-11-10T20:15:21.007Z,22.50
2018-11-10T20:17:49.253Z,21.17
2018-11-10T20:20:18.732Z,20.97
2018-11-10T20:22:47.075Z,21.00
2018-11-10T20:25:16.816Z,21.67
2018-11-10T20:27:45.129Z,20.20
2018-11-10T20:30:15.014Z,19.73
2018-11-10T20:32:43.374Z,21.03
2018-11-10T20:35:12.461Z,20.70
2018-11-10T20:37:41.933Z,21.13
2018-11-10T20:40:11.668Z,21.70
2018-11-10T20:42:40.150Z,21.90
2018-11-10T20:45:11.758Z,21.47
2018-11-10T20:47:40.413Z,21.40
2018-11-10T20:50:08.699Z,20.00
2018-11-10T20:52:37.834Z,20.47
2018-11-10T20:55:08.112Z,18.57
2018-11-10T20:57:37.153Z,20.10
2018-11-10T21:00:08.149Z,19.87
2018-11-10T21:02:36.414Z,18.87
2018-11-10T21:05:05.897Z,19.60
2018-11-10T21:07:34.182Z,19.57
2018-11-10T21:10:02.597Z,19.33
2018-11-10T21:12:30.926Z,20.00
2018-11-10T21:14:59.220Z,17.37
2018-11-10T21:17:27.516Z,18.57
2018-11-10T21:19:55.935Z,17.17
2018-11-10T21:22:24.168Z,18.03
2018-11-10T21:24:52.436Z,17.67
2018-11-10T21:27:20.745Z,17.63
2018-11-10T21:29:49.036Z,17.97
2018-11-10T21:32:17.278Z,17.47
2018-11-10T21:34:45.601Z,17.00
2018-11-10T21:37:13.894Z,17.60
2018-11-10T21:39:42.283Z,16.97
2018-11-10T21:42:11.697Z,17.63
2018-11-10T21:44:39.973Z,17.60
2018-11-10T21:47:08.292Z,17.63
2018-11-10T21:49:36.655Z,16.70
2018-11-10T21:52:05.087Z,16.83
2018-11-10T21:54:33.340Z,17.43
2018-11-10T21:57:01.859Z,16.07
2018-11-10T21:59:30.108Z,18.07
2018-11-10T22:01:58.396Z,16.63
2018-11-10T22:04:26.747Z,17.17
2018-11-10T22:06:54.980Z,16.87
2018-11-10T22:09:23.396Z,17.17
2018-11-10T22:11:51.616Z,18.20
2018-11-10T22:14:20.109Z,17.43
2018-11-10T22:16:48.357Z,17.03
2018-11-10T22:19:16.649Z,17.63
2018-11-10T22:21:45.074Z,18.10
2018-11-10T22:24:13.415Z,17.80
2018-11-10T22:26:41.790Z,17.27
2018-11-10T22:29:10.152Z,18.87
2018-11-10T22:31:38.576Z,17.33
2018-11-10T22:34:08.887Z,17.27
2018-11-10T22:36:37.140Z,17.73
2018-11-10T22:39:07.428Z,18.50
2018-11-10T22:41:35.742Z,18.07
2018-11-10T22:44:04.311Z,18.50
2018-11-10T22:46:32.708Z,17.67
2018-11-10T22:49:01.027Z,19.00
2018-11-10T22:51:29.273Z,16.97
2018-11-10T22:53:57.548Z,17.03
2018-11-10T22:56:25.882Z,17.37
2018-11-10T22:58:54.148Z,18.13
2018-11-10T23:01:26.971Z,18.40
2018-11-10T23:03:55.241Z,18.07
2018-11-10T23:06:23.517Z,18.50
2018-11-10T23:08:51.804Z,17.03
2018-11-10T23:11:20.092Z,17.10
2018-11-10T23:13:48.352Z,17.67
2018-11-10T23:16:16.647Z,16.93
2018-11-10T23:18:44.916Z,17.67
2018-11-10T23:21:13.264Z,16.57
2018-11-10T23:23:41.675Z,17.03
2018-11-10T23:26:10.018Z,16.20
2018-11-10T23:28:38.305Z,16.87
2018-11-10T23:31:06.924Z,15.93
2018-11-10T23:33:35.198Z,17.10
2018-11-10T23:36:03.613Z,17.70
2018-11-10T23:38:31.948Z,17.37
2018-11-10T23:41:00.246Z,16.37
2018-11-10T23:43:28.505Z,16.23
2018-11-10T23:45:56.807Z,16.80
2018-11-10T23:48:25.064Z,17.00
2018-11-10T23:50:53.349Z,17.77
2018-11-10T23:53:21.628Z,18.67
2018-11-10T23:55:49.885Z,17.47
2018-11-10T23:58:18.148Z,16.40
